Etusivu
METAR-TAF:

METAR-TAF

Lentoasemat :

Kairon kansainvälinen lentoasema

Kairo, Egypti

Leveyspiiri: 30-08N, Pituuspiiri: 031-24E, korkeus merenpinnasta: 64 m

Tämänhetkinen sää

Tämä raportti tehtiin 40 minuuttia sitten, kello 12.00 UTC
Tuuli 8 kn pohjoisesta/koillisesta
Lämpötila 20°C
Kosteus 37%
Ilmanpaine 1019 hPa
Näkyvyys 10 km tai enemmän
Muutamia pilviä 2500 ft:n korkeudessa

METAR: HECA 211200Z 02008KT 9999 FEW025 20/05 Q1019 NOSIG

Aika: 14:40 (12:40 UTC)

Sääennuste

Tämä raportti tehtiin 7 tuntia ja 40 minuuttia sitten, kello 05.00 UTC
Ennuste voimassa 21. päivästä klo 06 UTC - 22. päivään klo 12 UTC
Tuuli 6 kn koillisesta
Näkyvyys 10 km tai enemmän
ei pilviä alle 1500 m:ssä eikä cumulonimbus-pilviä
Todennäköisyys 40% :
Ajoittain
21. päivästä klo 06 UTC - 21. päivään klo 09 UTC
Näkyvyys: 4000 m
usvaa,

TAF: HECA 210500Z 2106/2212 05006KT CAVOK PROB40 TEMPO 2106/2109 4000 HZ NSC

Säähavainnot ja -ennusteet yli 4000 lentoasemalta (METAR- ja TAF-raportit).

Käytössä olevat sääasemat on merkitty karttaan keltaisilla ja punaisilla pisteillä.

Aseta hiiri pisteen päälle nähdäksesi sääaseman nimen.

Klikkaa sitten nähdäksesi säähavainnot ja -ennusteet.

Kartan vaihtaminen: klikkaa mustalla rastilla varustettuja vihreitä pisteitä, niin voit zoomata sisään; viivalla varustettua vihreää pistettä, niin voit zoomata ulos tai vihreitä nuolia, niin pääset viereisille kartoille.


METAR-TAF: